Portada
METAR-TAF:

METAR-TAF

Aeropuertos :

Abu Dhabi Bateen, Emiratos Árabes Unidos

latitud: 24-26N, longitud: 054-28E, altitud: 5 m

Observación

El informe se hizo hace 39 minutos, a las 04:00 UTC
Viento 5 kt del sureste
Temperatura 19°C
Humedad 83%
Presión 1015 hPa
Visibilidad: 7000 m

METAR: OMAD 090400Z 13005KT 7000 NSC 19/16 Q1015 NOSIG

Hora: 08:39 (04:39 UTC)

Pronóstico

El informe se hizo hace 5 horas y 39 minutos, a las 23:00 UTC
Pronóstico válido del 09 a las 00 UTC al 10 a las 06 UTC
Viento 2 kt con dirección variable
Visibilidad: 8000 m
Probabilidad 30%
del 09 a las 01 UTC al 09 a las 04 UTC
Visibilidad: 0800 m
a una altura de 200 ft
niebla
Evolucionando progresivamente
del 09 a las 07 UTC al 09 a las 09 UTC
Viento 8 kt del noroeste
Evolucionando progresivamente
del 09 a las 16 UTC al 09 a las 18 UTC
Viento 5 kt del sureste

TAF: OMAD 082300Z 0900/1006 VRB02KT 8000 NSC PROB30 0901/0904 0800 FG VV002 BECMG 0907/0909 32008KT BECMG 0916/0918 14005KT

Observaciones y pronósticos meteorológicos de más de 4000 aeropuertos (mensajes METAR y TAF).

Los puntos amarillos y rojos representan las estaciones disponibles.

Ponga el ratón en el punto deseado para ver el nombre de la estación.

Haga clic para ver las observaciones y los pronósticos meteorológicos.

Para cambiar el mapa : haga clic en los botones verdes con una cruz de color negro para hacer un zoom, en el botón verde con un guión para alejar o en las flechas verdes para mapas adyacentes.


METAR-TAF: